Time;durP1;ratioP1;P1;durP2;ratioP2;P2;SDS_P1;SDS_P2;PMS_P1;PMS_P2;Temp;Humidity;BMP_temperature;BMP_pressure;BME280_temperature;BME280_humidity;BME280_pressure;Samples;Min_cycle;Max_cycle;Signal;HPM_P1;HPM_P2
2024/02/13 00:00:47;;;;;;;10.98;3.42;;;2.90;99.90;;;;;;6059144;23;20031;-80
2024/02/13 00:03:34;;;;;;;10.95;3.70;;;2.90;99.90;;;;;;6060509;23;20027;-80
2024/02/13 00:06:21;;;;;;;7.72;3.70;;;2.90;99.90;;;;;;6067147;23;20026;-81
2024/02/13 00:09:09;;;;;;;11.80;3.50;;;2.80;99.90;;;;;;6044029;23;20399;-80
2024/02/13 00:11:56;;;;;;;19.20;3.78;;;2.80;99.90;;;;;;6038215;23;20381;-80
2024/02/13 00:14:46;;;;;;;11.93;3.70;;;2.90;99.90;;;;;;6059012;23;20468;-80
2024/02/13 00:17:35;;;;;;;9.07;3.55;;;3.00;99.90;;;;;;6058742;23;20037;-81
2024/02/13 00:20:23;;;;;;;13.35;3.72;;;3.10;99.90;;;;;;6037165;23;20504;-82
2024/02/13 00:23:11;;;;;;;14.32;3.78;;;3.20;27.70;;;;;;6038333;23;20023;-80
2024/02/13 00:25:59;;;;;;;12.55;3.70;;;3.30;99.90;;;;;;6058071;23;20165;-81
2024/02/13 00:28:46;;;;;;;13.30;3.85;;;3.30;1.00;;;;;;6058691;23;20023;-80
2024/02/13 00:31:35;;;;;;;20.70;4.15;;;3.40;99.90;;;;;;6059783;23;20090;-81
2024/02/13 00:34:23;;;;;;;12.90;3.60;;;3.40;99.90;;;;;;6059457;23;20933;-79
2024/02/13 00:37:11;;;;;;;12.98;4.47;;;3.50;37.80;;;;;;6060585;23;20049;-81
2024/02/13 00:40:02;;;;;;;13.02;3.60;;;3.60;1.00;;;;;;6067216;23;20427;-79
2024/02/13 00:42:51;;;;;;;13.85;3.83;;;3.50;99.90;;;;;;6059607;23;20118;-80
2024/02/13 00:45:38;;;;;;;11.52;4.18;;;3.60;99.90;;;;;;6058232;23;20034;-78
2024/02/13 00:48:26;;;;;;;9.43;3.55;;;3.60;99.90;;;;;;6068743;23;20030;-80
2024/02/13 00:51:16;;;;;;;8.45;3.08;;;3.70;99.90;;;;;;6064639;23;20099;-80
2024/02/13 00:54:03;;;;;;;19.63;3.65;;;3.80;99.90;;;;;;6059302;23;20375;-80
2024/02/13 00:56:54;;;;;;;8.57;2.75;;;3.90;73.00;;;;;;6059351;23;20048;-81
2024/02/13 00:59:43;;;;;;;15.75;3.03;;;3.90;1.00;;;;;;6051365;23;20059;-79
2024/02/13 01:02:30;;;;;;;7.55;3.03;;;4.00;1.00;;;;;;6078996;23;20099;-78
2024/02/13 01:05:18;;;;;;;12.65;3.03;;;4.00;1.00;;;;;;6081842;23;20033;-80
2024/02/13 01:08:07;;;;;;;8.73;3.25;;;4.10;99.90;;;;;;6078818;23;20040;-80
2024/02/13 01:10:55;;;;;;;12.15;2.85;;;4.10;99.90;;;;;;6049255;23;20031;-80
2024/02/13 01:13:43;;;;;;;8.88;3.53;;;4.10;99.90;;;;;;6047362;23;20042;-80
2024/02/13 01:16:31;;;;;;;16.10;3.38;;;4.20;99.90;;;;;;6061502;23;20035;-80
2024/02/13 01:19:20;;;;;;;6.55;3.28;;;4.20;99.90;;;;;;6061040;23;20102;-82
2024/02/13 01:22:07;;;;;;;10.93;3.35;;;4.20;99.90;;;;;;6059908;23;20466;-81
2024/02/13 01:24:55;;;;;;;7.78;3.30;;;4.30;99.90;;;;;;6078302;23;20098;-77
2024/02/13 01:27:43;;;;;;;13.63;2.75;;;4.30;99.90;;;;;;6081701;23;20090;-77
2024/02/13 01:30:31;;;;;;;12.25;3.17;;;4.30;92.60;;;;;;6071066;23;20051;-80
2024/02/13 01:33:18;;;;;;;9.73;2.75;;;4.20;19.00;;;;;;6072623;23;20347;-79
2024/02/13 01:36:07;;;;;;;6.68;2.85;;;4.10;1.00;;;;;;6061195;23;20038;-80
2024/02/13 01:38:59;;;;;;;7.15;3.78;;;4.10;1.00;;;;;;6061194;23;20023;-81
2024/02/13 01:41:47;;;;;;;10.70;2.70;;;4.00;1.00;;;;;;6060382;23;20034;-79
2024/02/13 01:44:35;;;;;;;15.75;3.63;;;4.00;8.40;;;;;;6062467;23;20038;-80
2024/02/13 01:47:24;;;;;;;10.10;3.00;;;3.90;16.50;;;;;;6040061;23;20022;-80
2024/02/13 01:50:14;;;;;;;11.25;2.72;;;3.90;49.40;;;;;;6060074;23;20480;-77
2024/02/13 01:53:03;;;;;;;9.45;3.03;;;3.90;93.70;;;;;;6061591;23;20023;-81
2024/02/13 01:55:52;;;;;;;11.30;3.50;;;3.80;99.90;;;;;;6062015;23;20154;-80
2024/02/13 01:58:41;;;;;;;9.82;3.08;;;3.80;99.90;;;;;;6060227;23;20030;-79
2024/02/13 02:01:29;;;;;;;15.77;3.70;;;3.80;99.90;;;;;;6069267;23;20129;-80
2024/02/13 02:04:19;;;;;;;11.18;2.80;;;3.80;99.90;;;;;;6040488;23;20106;-80
2024/02/13 02:07:08;;;;;;;11.48;3.45;;;3.80;99.90;;;;;;6039525;23;20082;-80
2024/02/13 02:09:59;;;;;;;14.05;3.35;;;3.70;99.90;;;;;;6060223;23;20043;-79
2024/02/13 02:12:50;;;;;;;10.98;3.55;;;3.70;99.90;;;;;;6041471;23;20023;-80
2024/02/13 02:15:41;;;;;;;11.48;3.63;;;3.60;99.90;;;;;;6061937;23;20041;-79
2024/02/13 02:18:29;;;;;;;7.35;3.10;;;3.50;99.90;;;;;;6046236;23;20030;-80
2024/02/13 02:21:17;;;;;;;11.40;3.20;;;3.50;99.90;;;;;;6047570;23;20030;-78
2024/02/13 02:24:05;;;;;;;10.65;3.25;;;3.40;1.00;;;;;;6060509;23;20027;-79
2024/02/13 02:26:54;;;;;;;9.40;3.67;;;3.40;1.00;;;;;;6056898;23;20114;-81
2024/02/13 02:29:42;;;;;;;9.32;3.30;;;3.40;99.90;;;;;;6060911;23;20039;-81
2024/02/13 02:32:33;;;;;;;10.30;3.80;;;3.40;99.90;;;;;;6037007;23;20187;-79
2024/02/13 02:35:21;;;;;;;10.25;3.40;;;3.30;99.90;;;;;;6058341;23;20106;-81
2024/02/13 02:38:13;;;;;;;8.65;3.30;;;3.20;99.90;;;;;;6038033;23;20031;-78
2024/02/13 02:41:01;;;;;;;12.50;3.67;;;3.20;1.00;;;;;;6038727;23;20030;-79
2024/02/13 02:43:50;;;;;;;19.02;2.95;;;3.10;1.00;;;;;;6057601;23;20023;-80
2024/02/13 02:46:39;;;;;;;10.68;3.30;;;2.90;1.00;;;;;;6058237;23;20054;-81
2024/02/13 02:49:27;;;;;;;15.02;3.80;;;2.80;11.30;;;;;;6058806;23;20029;-80
2024/02/13 02:52:17;;;;;;;12.60;3.97;;;2.60;99.90;;;;;;6058516;23;20450;-80
2024/02/13 02:55:08;;;;;;;8.73;3.67;;;2.60;1.00;;;;;;6056883;23;20117;-80
2024/02/13 02:57:56;;;;;;;16.23;3.80;;;2.50;99.90;;;;;;6058815;23;20609;-78
2024/02/13 03:00:45;;;;;;;14.10;4.00;;;2.60;99.90;;;;;;6064517;23;20031;-80
2024/02/13 03:03:33;;;;;;;12.95;4.10;;;2.60;1.00;;;;;;6048150;23;20130;-82
2024/02/13 03:06:20;;;;;;;15.65;4.53;;;2.60;1.00;;;;;;6042112;23;20051;-80
2024/02/13 03:09:08;;;;;;;11.95;3.97;;;2.60;91.00;;;;;;6054363;23;20027;-79
2024/02/13 03:11:56;;;;;;;13.05;4.20;;;2.70;99.90;;;;;;6067040;23;20114;-80
2024/02/13 03:14:44;;;;;;;10.15;3.53;;;2.60;99.90;;;;;;6062387;23;20105;-81
2024/02/13 03:17:32;;;;;;;21.85;4.97;;;2.60;99.90;;;;;;6058614;23;20035;-80
2024/02/13 03:20:22;;;;;;;15.82;4.35;;;2.60;99.90;;;;;;6041662;23;20034;-81
2024/02/13 03:23:09;;;;;;;21.35;4.25;;;2.70;99.90;;;;;;6056704;23;20583;-80
2024/02/13 03:25:58;;;;;;;18.42;4.80;;;2.80;99.90;;;;;;6057017;23;20034;-80
2024/02/13 03:28:46;;;;;;;15.90;4.03;;;2.80;99.90;;;;;;6038057;23;20114;-81
2024/02/13 03:31:36;;;;;;;18.13;4.25;;;2.90;99.90;;;;;;6056379;23;20347;-81
2024/02/13 03:34:26;;;;;;;16.23;4.45;;;3.00;99.90;;;;;;6058506;23;20041;-81
2024/02/13 03:37:14;;;;;;;13.77;4.05;;;3.10;99.90;;;;;;6036340;23;20062;-82
2024/02/13 03:40:06;;;;;;;9.52;3.80;;;3.20;99.90;;;;;;6057360;23;20026;-81
2024/02/13 03:42:54;;;;;;;10.00;4.07;;;3.10;99.90;;;;;;6056700;23;20033;-80
2024/02/13 03:45:43;;;;;;;14.68;4.20;;;3.10;99.90;;;;;;6046927;23;20049;-81
2024/02/13 03:48:31;;;;;;;10.05;3.22;;;3.10;99.90;;;;;;6066913;23;20027;-80
2024/02/13 03:51:22;;;;;;;11.27;4.13;;;3.10;99.90;;;;;;6029917;23;20379;-79
2024/02/13 03:54:10;;;;;;;11.98;4.07;;;3.10;99.90;;;;;;6067084;23;20041;-79
2024/02/13 03:57:00;;;;;;;16.42;4.32;;;3.10;99.90;;;;;;6066312;23;20027;-78
2024/02/13 03:59:48;;;;;;;12.05;3.90;;;3.00;99.90;;;;;;6060655;23;20605;-81
2024/02/13 04:02:38;;;;;;;8.20;3.80;;;3.00;99.90;;;;;;6038089;23;20042;-82
2024/02/13 04:05:26;;;;;;;16.77;4.47;;;3.00;99.90;;;;;;6058304;23;20027;-81
2024/02/13 04:08:13;;;;;;;17.58;4.07;;;2.90;99.90;;;;;;6058215;23;20042;-81
2024/02/13 04:11:03;;;;;;;14.55;5.35;;;2.80;99.90;;;;;;6036431;23;20023;-78
2024/02/13 04:13:52;;;;;;;20.40;4.18;;;2.80;99.90;;;;;;6037901;23;20102;-79
2024/02/13 04:16:41;;;;;;;25.58;4.32;;;2.80;99.90;;;;;;6057694;23;20033;-81
2024/02/13 04:19:28;;;;;;;10.82;4.40;;;2.80;99.90;;;;;;6021330;23;20819;-81
2024/02/13 04:22:16;;;;;;;11.75;4.05;;;2.80;99.90;;;;;;6072477;23;20031;-78
2024/02/13 04:25:05;;;;;;;17.25;4.53;;;2.80;99.90;;;;;;6076738;23;20019;-81
2024/02/13 04:27:53;;;;;;;12.63;3.92;;;2.80;99.90;;;;;;6083982;23;20011;-78
2024/02/13 04:30:41;;;;;;;9.15;4.28;;;2.80;99.90;;;;;;6037794;23;20027;-82
2024/02/13 04:33:28;;;;;;;9.10;4.38;;;2.70;99.90;;;;;;6064460;23;20027;-81
2024/02/13 04:36:17;;;;;;;14.82;4.65;;;2.70;99.90;;;;;;6055189;23;20215;-80
2024/02/13 04:39:07;;;;;;;16.52;4.70;;;2.80;99.90;;;;;;6070433;23;20038;-80
2024/02/13 04:41:55;;;;;;;11.07;4.22;;;2.80;99.90;;;;;;6067076;23;20037;-79
2024/02/13 04:44:43;;;;;;;12.32;4.97;;;2.90;99.90;;;;;;6070890;23;20087;-78
2024/02/13 04:47:31;;;;;;;17.83;4.35;;;2.90;99.90;;;;;;6066462;23;20027;-81
2024/02/13 04:50:19;;;;;;;22.02;5.22;;;2.80;99.90;;;;;;6061969;23;20031;-79
2024/02/13 04:53:09;;;;;;;11.20;4.30;;;2.80;99.90;;;;;;6062156;23;20046;-80
2024/02/13 04:55:57;;;;;;;11.90;5.05;;;2.80;99.90;;;;;;6076349;23;20031;-80
2024/02/13 04:58:45;;;;;;;17.52;5.60;;;2.90;99.90;;;;;;6081436;23;20031;-79
2024/02/13 05:01:39;;;;;;;15.55;5.72;;;2.80;99.90;;;;;;6066220;23;20027;-81
2024/02/13 05:07:21;;;;;;;20.15;5.75;;;2.80;99.90;;;;;;6037884;23;20027;-81
2024/02/13 05:10:09;;;;;;;18.98;5.88;;;2.70;99.90;;;;;;6041519;23;20366;-80
2024/02/13 05:12:57;;;;;;;13.30;5.65;;;2.60;99.90;;;;;;6043326;23;20589;-79
2024/02/13 05:15:47;;;;;;;24.58;5.85;;;2.60;99.90;;;;;;6051498;23;20086;-83
2024/02/13 05:18:36;;;;;;;16.17;6.35;;;2.60;99.90;;;;;;6056290;23;20507;-81
2024/02/13 05:21:26;;;;;;;14.13;5.03;;;2.60;99.90;;;;;;6059345;23;20039;-78
2024/02/13 05:24:14;;;;;;;15.82;5.72;;;2.60;99.90;;;;;;6063782;23;20027;-80
2024/02/13 05:27:03;;;;;;;15.15;5.22;;;2.50;99.90;;;;;;6067822;23;20098;-81
2024/02/13 05:29:50;;;;;;;15.57;5.10;;;2.50;99.90;;;;;;6038973;23;20513;-80
2024/02/13 05:32:40;;;;;;;16.58;5.82;;;2.50;99.90;;;;;;6035629;23;20022;-77
2024/02/13 05:35:27;;;;;;;10.75;5.68;;;2.50;99.90;;;;;;6052305;23;20084;-78
2024/02/13 05:38:15;;;;;;;16.83;4.90;;;2.50;99.90;;;;;;6051490;23;20054;-78
2024/02/13 05:41:05;;;;;;;22.60;6.32;;;2.40;99.90;;;;;;6052542;23;20027;-78
2024/02/13 05:43:54;;;;;;;14.07;5.75;;;2.40;99.90;;;;;;6032410;23;20489;-78
2024/02/13 05:46:42;;;;;;;10.77;5.75;;;2.40;99.90;;;;;;6052213;23;20034;-79
2024/02/13 05:49:29;;;;;;;15.75;5.68;;;2.50;99.90;;;;;;6054657;23;20027;-79
2024/02/13 05:52:21;;;;;;;13.90;5.50;;;2.50;99.90;;;;;;6033979;23;20031;-77
2024/02/13 05:55:11;;;;;;;22.25;6.70;;;2.50;99.90;;;;;;6041219;23;20038;-78
2024/02/13 05:57:58;;;;;;;14.65;5.78;;;2.40;99.90;;;;;;6059700;23;20051;-82
2024/02/13 06:00:46;;;;;;;21.48;5.70;;;2.40;99.90;;;;;;6062079;23;20596;-79
2024/02/13 06:03:33;;;;;;;13.60;5.68;;;2.40;99.90;;;;;;6062844;23;20030;-81
2024/02/13 06:06:23;;;;;;;14.80;5.88;;;2.50;99.90;;;;;;6045979;23;20031;-80
2024/02/13 06:09:13;;;;;;;24.00;6.88;;;2.50;99.90;;;;;;6044075;23;20023;-82
2024/02/13 06:12:03;;;;;;;17.13;5.47;;;2.50;99.90;;;;;;6037852;23;20626;-79
2024/02/13 06:14:50;;;;;;;16.98;6.05;;;2.60;99.90;;;;;;6036395;23;20368;-80
2024/02/13 06:17:41;;;;;;;17.35;6.57;;;2.60;99.90;;;;;;6060549;23;20057;-77
2024/02/13 06:20:28;;;;;;;17.13;5.50;;;2.60;99.90;;;;;;6059052;23;20063;-81
2024/02/13 06:23:16;;;;;;;16.38;5.93;;;2.60;99.90;;;;;;6036081;23;20106;-81
2024/02/13 06:26:04;;;;;;;19.83;7.07;;;2.60;99.90;;;;;;6059262;23;20518;-81
2024/02/13 06:28:53;;;;;;;20.27;6.20;;;2.50;99.90;;;;;;6059079;23;20027;-79
2024/02/13 06:31:41;;;;;;;16.70;6.32;;;2.40;99.90;;;;;;6060129;23;20027;-81
2024/02/13 06:34:29;;;;;;;20.20;6.00;;;2.30;99.90;;;;;;6058073;23;20038;-79
2024/02/13 06:37:18;;;;;;;18.33;6.40;;;2.30;99.90;;;;;;6035000;23;20114;-79
2024/02/13 06:40:07;;;;;;;21.10;6.82;;;2.10;99.90;;;;;;6019861;23;20710;-81
2024/02/13 06:42:56;;;;;;;20.05;6.22;;;2.10;99.90;;;;;;6060043;23;20094;-81
2024/02/13 06:45:43;;;;;;;14.13;5.20;;;2.00;99.90;;;;;;6059440;23;20038;-78
2024/02/13 06:48:31;;;;;;;18.33;5.13;;;2.00;99.90;;;;;;6067982;23;20067;-79
2024/02/13 06:51:21;;;;;;;18.52;5.35;;;1.90;99.90;;;;;;6060125;23;20042;-81
2024/02/13 06:54:09;;;;;;;12.35;4.82;;;2.00;99.90;;;;;;6059219;23;20031;-80
2024/02/13 06:56:57;;;;;;;10.63;5.57;;;2.20;99.90;;;;;;6070563;23;20035;-79
2024/02/13 06:59:44;;;;;;;15.07;5.90;;;2.30;99.90;;;;;;6035764;23;20041;-78
2024/02/13 07:02:32;;;;;;;14.45;5.50;;;2.40;99.90;;;;;;6031477;23;20506;-76
2024/02/13 07:05:20;;;;;;;24.02;5.88;;;2.50;99.90;;;;;;6052207;23;20347;-77
2024/02/13 07:08:09;;;;;;;16.15;5.97;;;2.50;99.90;;;;;;6051975;23;20030;-76
2024/02/13 07:10:57;;;;;;;13.88;5.72;;;2.60;99.90;;;;;;6051720;23;20206;-78
2024/02/13 07:13:45;;;;;;;16.50;6.47;;;2.60;99.90;;;;;;6053843;23;20023;-76
2024/02/13 07:16:38;;;;;;;17.83;7.35;;;2.70;99.90;;;;;;6054361;23;20054;-77
2024/02/13 07:19:28;;;;;;;18.65;6.88;;;2.80;99.90;;;;;;6040002;23;20082;-77
2024/02/13 07:22:17;;;;;;;20.45;7.95;;;3.00;99.90;;;;;;6036238;23;20177;-77
2024/02/13 07:25:05;;;;;;;20.00;7.18;;;3.10;99.90;;;;;;6056563;23;20894;-76
2024/02/13 07:27:53;;;;;;;16.38;6.10;;;3.30;99.90;;;;;;6042738;23;20023;-77
2024/02/13 07:30:41;;;;;;;15.00;6.70;;;3.60;99.90;;;;;;6068769;23;20114;-78
2024/02/13 07:33:28;;;;;;;20.23;6.25;;;4.20;99.90;;;;;;6043666;23;20022;-77
2024/02/13 07:36:17;;;;;;;16.50;5.10;;;4.70;99.90;;;;;;6056367;23;20038;-77
2024/02/13 07:39:05;;;;;;;14.27;3.55;;;5.10;99.90;;;;;;6059195;23;20035;-81
2024/02/13 07:41:55;;;;;;;12.10;3.83;;;5.20;99.90;;;;;;6073315;23;20050;-81
2024/02/13 07:44:43;;;;;;;8.80;3.70;;;5.30;1.00;;;;;;6036702;23;20089;-81
2024/02/13 07:47:33;;;;;;;9.05;3.28;;;5.20;99.90;;;;;;6058157;23;20054;-81
2024/02/13 07:50:26;;;;;;;10.60;3.85;;;5.10;1.00;;;;;;6058595;23;20038;-84
2024/02/13 07:53:17;;;;;;;11.00;3.60;;;5.10;1.00;;;;;;6053147;23;20034;-78
2024/02/13 07:56:06;;;;;;;11.30;3.33;;;5.10;1.00;;;;;;6052751;23;20114;-76
2024/02/13 07:58:59;;;;;;;12.55;2.97;;;5.00;99.90;;;;;;6052860;23;20038;-78
2024/02/13 08:01:49;;;;;;;12.27;3.25;;;5.10;1.00;;;;;;6053381;23;20523;-78
2024/02/13 08:04:37;;;;;;;6.38;3.28;;;5.20;99.90;;;;;;6034010;23;20185;-78
2024/02/13 08:07:27;;;;;;;11.18;3.42;;;5.20;1.00;;;;;;6037438;23;20160;-77
2024/02/13 08:10:15;;;;;;;8.77;3.40;;;5.20;99.90;;;;;;6057972;23;20794;-78
2024/02/13 08:13:06;;;;;;;9.73;3.08;;;5.30;99.90;;;;;;6038952;23;20098;-77
2024/02/13 08:15:53;;;;;;;7.68;3.03;;;5.40;19.10;;;;;;6047533;23;20460;-78
2024/02/13 08:18:42;;;;;;;10.52;3.83;;;5.50;1.00;;;;;;6033763;23;20030;-78
2024/02/13 08:21:31;;;;;;;6.20;3.20;;;5.60;99.90;;;;;;6042936;23;20030;-78
2024/02/13 08:24:19;;;;;;;8.75;2.78;;;5.70;99.90;;;;;;6081078;23;20091;-78
2024/02/13 08:27:08;;;;;;;7.72;3.30;;;5.80;1.00;;;;;;6087983;23;20035;-78
2024/02/13 08:29:56;;;;;;;13.35;3.95;;;5.90;1.00;;;;;;6044232;23;20102;-78
2024/02/13 08:32:46;;;;;;;14.05;3.00;;;6.10;99.90;;;;;;6050293;23;20042;-77
2024/02/13 08:35:35;;;;;;;13.57;3.40;;;6.30;99.90;;;;;;6054871;23;20745;-76
2024/02/13 08:38:22;;;;;;;10.60;3.22;;;6.30;75.20;;;;;;6056205;23;20027;-77
2024/02/13 08:41:16;;;;;;;12.18;3.05;;;6.40;1.00;;;;;;6067737;23;20529;-78
2024/02/13 08:44:11;;;;;;;9.82;3.28;;;6.60;1.00;;;;;;6055060;23;20088;-79
2024/02/13 08:47:03;;;;;;;7.97;2.40;;;7.00;99.90;;;;;;6054136;23;20180;-79
2024/02/13 08:49:52;;;;;;;7.40;2.50;;;7.30;99.90;;;;;;6053377;23;20110;-77
2024/02/13 08:52:44;;;;;;;9.45;3.00;;;7.40;99.90;;;;;;6054507;23;20715;-78
2024/02/13 08:55:31;;;;;;;13.10;2.55;;;7.20;5.60;;;;;;6053740;23;20042;-80
2024/02/13 08:58:19;;;;;;;6.45;2.33;;;7.40;1.00;;;;;;6057244;23;20037;-77
2024/02/13 09:01:08;;;;;;;11.70;3.25;;;7.80;1.00;;;;;;6056067;23;20716;-78
2024/02/13 09:03:56;;;;;;;10.85;2.35;;;7.70;1.00;;;;;;6057575;23;20038;-78
2024/02/13 09:06:43;;;;;;;8.07;2.10;;;7.70;99.90;;;;;;6064916;23;20027;-78
2024/02/13 09:09:32;;;;;;;7.38;2.42;;;7.90;99.90;;;;;;6062522;23;20038;-77
2024/02/13 09:12:23;;;;;;;6.63;1.98;;;8.30;99.90;;;;;;6055672;23;20528;-80
2024/02/13 09:15:20;;;;;;;8.93;2.53;;;8.40;99.90;;;;;;6030893;23;20034;-78
2024/02/13 09:18:09;;;;;;;7.22;2.15;;;8.60;99.90;;;;;;6043310;23;20059;-79
2024/02/13 09:21:02;;;;;;;7.95;2.35;;;8.70;99.90;;;;;;6066348;23;20027;-79
2024/02/13 09:23:50;;;;;;;21.77;3.07;;;9.00;99.90;;;;;;6057494;23;20030;-80
2024/02/13 09:26:41;;;;;;;12.18;2.30;;;9.80;54.30;;;;;;6057863;23;20458;-79
2024/02/13 09:29:29;;;;;;;6.30;2.17;;;10.40;6.50;;;;;;6057640;23;20055;-79
2024/02/13 09:32:17;;;;;;;6.85;2.08;;;10.40;1.00;;;;;;6037004;23;20580;-77
2024/02/13 09:35:08;;;;;;;13.02;2.20;;;9.90;1.00;;;;;;6058329;23;20030;-78
2024/02/13 09:37:58;;;;;;;5.97;2.30;;;9.90;1.00;;;;;;6056477;23;20608;-80
2024/02/13 09:40:48;;;;;;;4.00;1.67;;;10.40;99.90;;;;;;6058318;23;20033;-79
2024/02/13 09:43:35;;;;;;;5.85;1.80;;;9.80;99.90;;;;;;6057361;23;20041;-79
2024/02/13 09:46:27;;;;;;;5.35;1.85;;;9.40;99.90;;;;;;6039220;23;20023;-79
2024/02/13 09:49:17;;;;;;;4.78;1.63;;;9.50;99.90;;;;;;6057781;23;20468;-79
2024/02/13 09:52:09;;;;;;;5.05;2.10;;;9.60;99.90;;;;;;6059383;23;20503;-79
2024/02/13 09:55:00;;;;;;;7.85;2.35;;;9.90;99.90;;;;;;6067665;23;20033;-78
2024/02/13 09:57:49;;;;;;;4.47;1.50;;;10.10;99.90;;;;;;6065673;23;20031;-79
2024/02/13 10:00:38;;;;;;;5.88;2.22;;;10.50;99.90;;;;;;6049558;23;20031;-76
2024/02/13 10:03:27;;;;;;;8.55;2.20;;;10.70;99.90;;;;;;6068324;23;20022;-76
2024/02/13 10:06:15;;;;;;;11.15;2.70;;;11.10;99.90;;;;;;6075353;23;20031;-77
2024/02/13 10:09:05;;;;;;;11.30;2.13;;;12.20;99.90;;;;;;6070250;23;20037;-78
2024/02/13 10:12:12;;;;;;;6.35;1.98;;;12.80;99.90;;;;;;6056502;23;20027;-77
2024/02/13 10:15:00;;;;;;;6.00;2.13;;;12.70;99.90;;;;;;6079073;23;20066;-80
2024/02/13 10:17:49;;;;;;;9.80;2.55;;;12.30;99.90;;;;;;6078738;23;20267;-77
2024/02/13 10:20:39;;;;;;;10.68;3.00;;;11.90;99.90;;;;;;6075430;23;20047;-77
2024/02/13 10:23:29;;;;;;;5.57;2.13;;;11.60;99.90;;;;;;6054698;23;20027;-78
2024/02/13 10:26:18;;;;;;;8.18;2.72;;;11.40;99.90;;;;;;6075059;23;20046;-79
2024/02/13 10:29:07;;;;;;;6.75;2.72;;;11.20;99.90;;;;;;6033032;23;20085;-78
2024/02/13 10:32:07;;;;;;;9.77;2.60;;;11.50;99.90;;;;;;6052665;23;20034;-78
2024/02/13 10:34:54;;;;;;;6.43;2.03;;;11.80;99.90;;;;;;6052257;23;20027;-77
2024/02/13 10:37:46;;;;;;;7.15;1.95;;;12.70;99.90;;;;;;6052399;23;20115;-76
2024/02/13 10:40:41;;;;;;;7.72;2.80;;;12.90;99.90;;;;;;6035418;23;20037;-77
2024/02/13 10:43:28;;;;;;;5.88;2.50;;;11.70;99.90;;;;;;6055837;23;20865;-78
2024/02/13 10:46:22;;;;;;;6.03;2.22;;;11.90;99.90;;;;;;6034954;23;20027;-79
2024/02/13 10:49:24;;;;;;;9.55;2.17;;;12.40;99.90;;;;;;6042772;23;20026;-78
2024/02/13 10:52:13;;;;;;;8.55;2.20;;;12.60;99.90;;;;;;6073018;23;20094;-78
2024/02/13 10:55:07;;;;;;;6.85;2.00;;;12.40;99.90;;;;;;6075884;23;20018;-78
2024/02/13 10:57:58;;;;;;;4.95;1.88;;;12.80;99.90;;;;;;6082966;23;20106;-79
2024/02/13 11:00:48;;;;;;;6.00;1.88;;;12.80;99.90;;;;;;6076098;23;20093;-79
2024/02/13 11:03:38;;;;;;;7.65;2.05;;;14.00;99.90;;;;;;6067042;23;20082;-78
2024/02/13 11:06:28;;;;;;;6.55;2.00;;;14.60;99.90;;;;;;6024691;23;20027;-79
2024/02/13 11:09:18;;;;;;;3.15;1.27;;;15.20;99.90;;;;;;6080000;23;20443;-79
2024/02/13 11:12:10;;;;;;;4.03;1.73;;;16.60;99.90;;;;;;6079311;23;20034;-76
2024/02/13 11:15:17;;;;;;;2.20;1.40;;;17.60;92.40;;;;;;6068998;23;20055;-77
2024/02/13 11:18:12;;;;;;;4.20;1.55;;;17.00;55.90;;;;;;6046271;23;20050;-77
2024/02/13 11:21:01;;;;;;;5.75;1.70;;;15.70;41.80;;;;;;6061318;23;20060;-79
2024/02/13 11:23:59;;;;;;;4.57;1.50;;;15.10;35.30;;;;;;6057371;23;20065;-78
2024/02/13 11:26:51;;;;;;;3.67;1.40;;;13.70;28.00;;;;;;6057594;23;20101;-76
2024/02/13 11:29:38;;;;;;;6.20;1.67;;;12.70;27.90;;;;;;6067443;23;20021;-77
2024/02/13 11:32:29;;;;;;;3.45;1.27;;;11.60;27.80;;;;;;6027640;23;20043;-78
2024/02/13 11:35:17;;;;;;;3.53;1.17;;;11.30;30.00;;;;;;6047734;23;20042;-77
2024/02/13 11:38:18;;;;;;;5.97;2.47;;;10.90;27.10;;;;;;6069855;23;20070;-77
2024/02/13 11:41:17;;;;;;;5.28;1.45;;;10.60;28.70;;;;;;6072236;23;20031;-78
2024/02/13 11:44:08;;;;;;;5.63;1.60;;;10.20;31.70;;;;;;6076241;23;20042;-78
2024/02/13 11:46:56;;;;;;;3.05;1.10;;;9.90;36.60;;;;;;6068319;23;20023;-78
2024/02/13 11:49:59;;;;;;;3.42;1.02;;;10.80;44.80;;;;;;6047082;23;20027;-79
2024/02/13 11:52:51;;;;;;;1.15;1.05;;;11.60;37.00;;;;;;6064905;23;20090;-77
2024/02/13 11:55:43;;;;;;;2.38;1.10;;;11.30;32.30;;;;;;6061318;23;20086;-79
2024/02/13 11:58:32;;;;;;;1.65;1.13;;;10.90;35.20;;;;;;6033766;23;20034;-77
2024/02/13 12:01:25;;;;;;;4.45;1.98;;;11.50;30.80;;;;;;6054456;23;20019;-77
2024/02/13 12:04:16;;;;;;;2.60;1.05;;;11.80;26.70;;;;;;6050985;23;20030;-78
2024/02/13 12:07:10;;;;;;;2.97;1.08;;;12.50;21.70;;;;;;6081822;23;20090;-77
2024/02/13 12:09:58;;;;;;;1.95;0.88;;;13.10;18.70;;;;;;6048496;23;20026;-78
2024/02/13 12:12:47;;;;;;;5.47;1.10;;;13.70;16.30;;;;;;6068085;23;20718;-77
2024/02/13 12:15:36;;;;;;;2.28;1.08;;;14.20;11.10;;;;;;6073186;23;20034;-78
2024/02/13 12:18:32;;;;;;;2.47;1.00;;;13.80;9.70;;;;;;6061610;23;20037;-79
2024/02/13 12:21:22;;;;;;;6.68;2.05;;;14.10;7.20;;;;;;6080917;23;20022;-77
2024/02/13 12:24:11;;;;;;;4.07;1.35;;;14.70;2.10;;;;;;6068190;23;20109;-75
2024/02/13 12:27:03;;;;;;;4.10;1.10;;;15.30;12.40;;;;;;6068294;23;20023;-78
2024/02/13 12:29:50;;;;;;;2.95;1.30;;;15.80;1.00;;;;;;6071122;23;20114;-83
2024/02/13 12:32:38;;;;;;;2.10;0.90;;;14.80;1.00;;;;;;6074436;23;20050;-80
2024/02/13 12:35:32;;;;;;;2.00;0.93;;;13.50;1.00;;;;;;6037187;23;20052;-81
2024/02/13 12:38:23;;;;;;;4.85;1.17;;;13.20;1.00;;;;;;6035306;23;20094;-80
2024/02/13 12:41:15;;;;;;;2.95;0.80;;;13.60;1.00;;;;;;6036078;23;20039;-80
2024/02/13 12:44:03;;;;;;;4.90;0.80;;;14.20;1.00;;;;;;6036910;23;20030;-79
2024/02/13 12:46:51;;;;;;;4.40;1.08;;;15.00;1.00;;;;;;6056198;23;20571;-80
2024/02/13 12:49:42;;;;;;;2.42;0.95;;;16.20;1.00;;;;;;6037941;23;20033;-80
2024/02/13 12:52:31;;;;;;;3.33;1.05;;;17.10;1.00;;;;;;6037606;23;20026;-81
2024/02/13 12:55:22;;;;;;;2.38;0.90;;;17.10;1.00;;;;;;6063556;23;20078;-79
2024/02/13 12:58:12;;;;;;;2.72;0.85;;;15.90;1.00;;;;;;6059473;23;20029;-79
2024/02/13 13:01:03;;;;;;;3.67;1.17;;;15.10;1.00;;;;;;6058024;23;20101;-80
2024/02/13 13:03:52;;;;;;;3.65;1.15;;;15.60;1.00;;;;;;6038945;23;20423;-80
2024/02/13 13:06:44;;;;;;;8.88;1.65;;;16.90;1.00;;;;;;6055498;23;20034;-81
2024/02/13 13:09:32;;;;;;;2.17;1.00;;;16.90;1.00;;;;;;6064794;23;20474;-81
2024/02/13 13:12:21;;;;;;;6.60;1.45;;;15.90;1.00;;;;;;6065920;23;20027;-81
2024/02/13 13:15:09;;;;;;;2.80;1.23;;;14.60;1.00;;;;;;6056379;23;20027;-81
2024/02/13 13:18:18;;;;;;;3.15;0.80;;;13.10;1.00;;;;;;6058360;23;20349;-81
2024/02/13 13:21:07;;;;;;;3.05;0.98;;;11.90;1.00;;;;;;6067675;23;20066;-80
2024/02/13 13:23:57;;;;;;;2.70;1.10;;;11.90;1.00;;;;;;6066257;23;20077;-81
2024/02/13 13:26:47;;;;;;;2.42;1.08;;;11.20;1.00;;;;;;6038135;23;20034;-80
2024/02/13 13:29:38;;;;;;;2.28;1.05;;;10.80;1.00;;;;;;6055967;23;20027;-80
2024/02/13 13:32:27;;;;;;;3.40;1.20;;;10.40;1.00;;;;;;6057666;23;20119;-81
2024/02/13 13:35:21;;;;;;;2.88;1.10;;;10.10;1.00;;;;;;6043270;23;20033;-83
2024/02/13 13:38:19;;;;;;;3.65;1.00;;;10.00;1.00;;;;;;6074134;23;20043;-82
2024/02/13 13:41:07;;;;;;;3.67;0.93;;;9.90;1.00;;;;;;6058523;23;20038;-79
2024/02/13 13:43:55;;;;;;;3.75;1.33;;;10.00;1.00;;;;;;6067707;23;20037;-81
2024/02/13 13:46:45;;;;;;;3.22;1.40;;;11.10;1.00;;;;;;6064274;23;20023;-78
2024/02/13 13:49:34;;;;;;;2.67;1.15;;;11.50;1.00;;;;;;6033477;23;20030;-76
2024/02/13 13:52:23;;;;;;;4.68;1.20;;;11.70;1.00;;;;;;6030521;23;20061;-76
2024/02/13 13:55:12;;;;;;;3.55;1.00;;;12.90;1.00;;;;;;6055767;23;20112;-79
2024/02/13 13:58:02;;;;;;;3.70;1.00;;;13.50;1.00;;;;;;6071147;23;20031;-79
2024/02/13 14:00:51;;;;;;;2.85;0.88;;;14.20;1.00;;;;;;6059829;23;20030;-78
2024/02/13 14:03:39;;;;;;;1.88;1.00;;;15.10;1.00;;;;;;6056807;23;20031;-77
2024/02/13 14:06:27;;;;;;;1.30;0.80;;;15.10;1.00;;;;;;6068291;23;20030;-77
2024/02/13 14:09:15;;;;;;;3.03;0.88;;;16.70;1.00;;;;;;6072299;23;20245;-77
2024/02/13 14:12:05;;;;;;;3.10;0.90;;;18.00;1.00;;;;;;6042387;23;20038;-79
2024/02/13 14:14:58;;;;;;;3.60;0.80;;;17.60;1.00;;;;;;6040145;23;20038;-78
2024/02/13 14:17:48;;;;;;;3.00;1.10;;;17.30;1.00;;;;;;6062280;23;20026;-79
2024/02/13 14:20:39;;;;;;;2.35;0.90;;;15.60;1.00;;;;;;6060327;23;20030;-76
2024/02/13 14:23:29;;;;;;;2.33;0.80;;;14.70;1.00;;;;;;6061940;23;20031;-79
2024/02/13 14:26:16;;;;;;;2.38;0.70;;;14.60;1.00;;;;;;6059862;23;20050;-76
2024/02/13 14:29:10;;;;;;;2.85;0.93;;;15.10;1.00;;;;;;6059851;23;20027;-77
2024/02/13 14:31:58;;;;;;;3.83;0.90;;;16.20;1.00;;;;;;6059357;23;20466;-79
2024/02/13 14:34:48;;;;;;;2.25;0.70;;;17.30;1.00;;;;;;6057171;23;20359;-77
2024/02/13 14:37:39;;;;;;;3.50;0.80;;;18.30;1.00;;;;;;6055360;23;20762;-78
2024/02/13 14:40:26;;;;;;;2.97;1.02;;;18.20;1.00;;;;;;6059459;23;20738;-79
2024/02/13 14:43:15;;;;;;;2.55;1.00;;;17.00;1.00;;;;;;6062207;23;20050;-76
2024/02/13 14:46:06;;;;;;;3.22;0.65;;;16.90;1.00;;;;;;6060067;23;20027;-82
2024/02/13 14:48:53;;;;;;;3.15;0.82;;;15.50;1.00;;;;;;6059308;23;20030;-81